Time;durP1;ratioP1;P1;durP2;ratioP2;P2;SDS_P1;SDS_P2;PMS_P1;PMS_P2;Temp;Humidity;BMP_temperature;BMP_pressure;BME280_temperature;BME280_humidity;BME280_pressure;Samples;Min_cycle;Max_cycle;Signal;HPM_P1;HPM_P2
2023/07/19 00:02:09;;;;;;;13.65;5.60;;;28.40;99.90;;;;;;1786221;79;21189;-71
2023/07/19 00:04:42;;;;;;;13.03;5.35;;;28.40;99.90;;;;;;1833284;77;21530;-69
2023/07/19 00:07:13;;;;;;;8.73;5.30;;;28.40;99.90;;;;;;1830304;77;21088;-72
2023/07/19 00:09:44;;;;;;;9.60;5.22;;;28.50;99.90;;;;;;1818209;77;21139;-72
2023/07/19 00:12:16;;;;;;;10.80;5.22;;;28.50;99.90;;;;;;1790440;78;21207;-69
2023/07/19 00:14:47;;;;;;;14.95;5.83;;;28.50;99.90;;;;;;1799454;79;21142;-69
2023/07/19 00:17:18;;;;;;;10.03;5.30;;;28.50;99.90;;;;;;1789704;79;21209;-71
2023/07/19 00:19:49;;;;;;;12.35;6.15;;;28.50;99.90;;;;;;1806650;78;21523;-73
2023/07/19 00:22:20;;;;;;;11.48;5.67;;;28.60;99.90;;;;;;1794718;79;21155;-73
2023/07/19 00:24:51;;;;;;;12.82;4.95;;;28.60;99.90;;;;;;1824698;77;21170;-70
2023/07/19 00:27:22;;;;;;;14.05;5.37;;;28.60;99.90;;;;;;1832441;77;21190;-70
2023/07/19 00:29:54;;;;;;;9.75;4.72;;;28.60;99.90;;;;;;1825958;77;21499;-70
2023/07/19 00:32:25;;;;;;;15.83;5.70;;;28.70;99.90;;;;;;1808737;78;21154;-71
2023/07/19 00:34:56;;;;;;;16.23;5.12;;;28.70;99.90;;;;;;1788776;80;21189;-71
2023/07/19 00:37:27;;;;;;;13.25;5.67;;;28.70;99.90;;;;;;1821035;77;21597;-71
2023/07/19 00:39:59;;;;;;;13.88;6.00;;;28.70;99.90;;;;;;1824515;77;21107;-72
2023/07/19 00:42:30;;;;;;;16.35;6.72;;;28.70;99.90;;;;;;1823431;77;21161;-71
2023/07/19 00:45:01;;;;;;;20.12;6.35;;;28.80;99.90;;;;;;1823253;77;21103;-70
2023/07/19 00:47:33;;;;;;;11.85;5.72;;;28.80;99.90;;;;;;1809888;79;21225;-69
2023/07/19 00:50:06;;;;;;;10.13;7.20;;;28.80;99.90;;;;;;1824655;77;21168;-70
2023/07/19 00:52:38;;;;;;;24.90;7.22;;;28.90;99.90;;;;;;1799612;78;21527;-70
2023/07/19 00:55:10;;;;;;;15.28;6.12;;;28.90;99.90;;;;;;1819566;77;21216;-70
2023/07/19 00:57:41;;;;;;;14.13;6.62;;;28.90;99.90;;;;;;1789637;80;21186;-70
2023/07/19 01:00:13;;;;;;;21.80;6.92;;;28.90;99.90;;;;;;1834241;77;21119;-69
2023/07/19 01:02:44;;;;;;;18.00;6.37;;;28.90;99.90;;;;;;1826306;77;21134;-68
2023/07/19 01:05:16;;;;;;;16.00;6.00;;;29.00;99.90;;;;;;1794758;79;21487;-70
2023/07/19 01:07:47;;;;;;;21.20;6.20;;;29.00;99.90;;;;;;1800903;78;21612;-69
2023/07/19 01:10:18;;;;;;;15.35;5.30;;;29.10;99.80;;;;;;1787356;78;21112;-69
2023/07/19 01:13:10;;;;;;;21.37;5.87;;;29.10;99.70;;;;;;1797676;79;21081;-68
2023/07/19 01:15:41;;;;;;;18.98;5.37;;;29.20;99.70;;;;;;1811863;78;21099;-70
2023/07/19 01:18:13;;;;;;;14.85;6.45;;;29.20;99.50;;;;;;1781612;79;21163;-68
2023/07/19 01:20:44;;;;;;;21.90;6.90;;;29.30;99.40;;;;;;1784926;79;21139;-71
2023/07/19 01:23:15;;;;;;;30.52;8.73;;;29.30;99.10;;;;;;1787329;79;21104;-70
2023/07/19 01:25:46;;;;;;;30.10;9.33;;;29.20;99.30;;;;;;1783102;79;21526;-69
2023/07/19 01:28:17;;;;;;;30.43;6.95;;;29.30;99.40;;;;;;1789672;79;21156;-71
2023/07/19 01:30:48;;;;;;;26.35;8.73;;;29.30;99.40;;;;;;1803208;78;21224;-71
2023/07/19 01:33:19;;;;;;;21.95;7.25;;;29.40;99.10;;;;;;1817124;79;21163;-71
2023/07/19 01:35:52;;;;;;;14.23;4.85;;;29.40;99.10;;;;;;1818477;78;21080;-69
2023/07/19 01:38:23;;;;;;;137.92;17.17;;;29.40;99.20;;;;;;1816747;77;21216;-69
2023/07/19 01:40:54;;;;;;;97.05;15.35;;;29.40;99.70;;;;;;1781394;79;21452;-68
2023/07/19 01:43:25;;;;;;;80.15;13.72;;;29.40;99.10;;;;;;1783073;79;21114;-71
2023/07/19 01:45:56;;;;;;;42.43;9.20;;;29.40;99.20;;;;;;1780101;80;21492;-70
2023/07/19 01:48:28;;;;;;;27.35;6.83;;;29.50;99.20;;;;;;1786510;79;21178;-68
2023/07/19 01:50:59;;;;;;;26.07;7.72;;;29.50;99.00;;;;;;1782118;79;21143;-70
2023/07/19 01:53:30;;;;;;;31.35;6.85;;;29.50;99.10;;;;;;1784150;79;21073;-70
2023/07/19 01:56:01;;;;;;;16.77;6.80;;;29.60;98.90;;;;;;1780796;79;21103;-67
2023/07/19 01:58:32;;;;;;;15.50;5.28;;;29.50;98.80;;;;;;1780882;80;21206;-71
2023/07/19 02:01:06;;;;;;;18.12;5.50;;;29.60;99.00;;;;;;1782906;79;21457;-70
2023/07/19 02:03:37;;;;;;;19.90;9.55;;;29.60;98.50;;;;;;1782080;80;21109;-71
2023/07/19 02:06:08;;;;;;;14.90;5.37;;;29.60;98.50;;;;;;1781675;79;21171;-72
2023/07/19 02:08:41;;;;;;;18.25;6.33;;;29.60;98.80;;;;;;1779514;80;21140;-71
2023/07/19 02:11:12;;;;;;;41.60;7.87;;;29.60;98.80;;;;;;1788868;78;21240;-71
2023/07/19 02:13:44;;;;;;;23.73;6.87;;;29.70;98.80;;;;;;1823852;77;21155;-70
2023/07/19 02:16:15;;;;;;;20.02;6.95;;;29.70;98.90;;;;;;1829029;77;21096;-67
2023/07/19 02:18:46;;;;;;;24.50;5.97;;;29.80;98.80;;;;;;1801511;78;21554;-69
2023/07/19 02:21:17;;;;;;;10.35;4.37;;;29.80;98.50;;;;;;1828005;77;21224;-70
2023/07/19 02:23:49;;;;;;;10.08;4.40;;;29.90;98.10;;;;;;1796499;78;21100;-70
2023/07/19 02:26:20;;;;;;;9.23;4.28;;;29.90;98.10;;;;;;1818149;77;21162;-69
2023/07/19 02:28:51;;;;;;;15.50;6.05;;;29.90;98.10;;;;;;1788723;78;21229;-72
2023/07/19 02:31:22;;;;;;;45.90;10.08;;;29.90;98.30;;;;;;1830448;77;21131;-68
2023/07/19 02:33:53;;;;;;;76.70;17.75;;;29.90;98.20;;;;;;1826267;77;21566;-71
2023/07/19 02:36:24;;;;;;;38.02;9.68;;;30.00;98.40;;;;;;1819767;77;21107;-70
2023/07/19 02:38:56;;;;;;;28.85;7.53;;;30.10;98.30;;;;;;1830716;77;21088;-71
2023/07/19 02:41:27;;;;;;;20.95;6.75;;;30.20;97.90;;;;;;1793639;78;21613;-70
2023/07/19 02:43:59;;;;;;;11.70;3.80;;;30.20;97.60;;;;;;1797973;78;21135;-71
2023/07/19 02:46:30;;;;;;;25.85;7.20;;;30.30;96.90;;;;;;1818727;77;21111;-69
2023/07/19 02:49:01;;;;;;;8.95;3.85;;;30.40;97.10;;;;;;1791168;79;21578;-71
2023/07/19 02:51:32;;;;;;;10.68;3.87;;;30.40;97.10;;;;;;1800378;78;21145;-69
2023/07/19 02:54:03;;;;;;;11.10;5.17;;;30.50;97.00;;;;;;1791091;79;21186;-69
2023/07/19 02:56:35;;;;;;;18.17;6.10;;;30.50;96.80;;;;;;1795985;79;21118;-68
2023/07/19 02:59:06;;;;;;;28.35;6.08;;;30.60;96.70;;;;;;1824561;77;21161;-70
2023/07/19 03:01:37;;;;;;;25.05;5.87;;;30.60;96.30;;;;;;1820460;77;21229;-70
2023/07/19 03:04:08;;;;;;;11.10;6.75;;;30.60;96.20;;;;;;1827323;77;21087;-71
2023/07/19 03:06:39;;;;;;;25.43;9.28;;;30.60;96.40;;;;;;1794638;79;21597;-69
2023/07/19 03:09:12;;;;;;;13.93;5.78;;;30.50;96.70;;;;;;1791275;78;21106;-71
2023/07/19 03:11:43;;;;;;;14.18;6.25;;;30.50;96.70;;;;;;1833261;76;21212;-70
2023/07/19 03:14:14;;;;;;;6.83;3.15;;;30.60;96.70;;;;;;1827687;77;21119;-69
2023/07/19 03:16:45;;;;;;;20.97;10.60;;;30.60;96.40;;;;;;1836366;77;21224;-69
2023/07/19 03:19:17;;;;;;;10.32;5.80;;;30.60;96.70;;;;;;1834499;77;21200;-71
2023/07/19 03:21:48;;;;;;;48.65;8.95;;;30.60;96.80;;;;;;1802043;78;21066;-71
2023/07/19 03:24:20;;;;;;;14.33;4.87;;;30.70;96.60;;;;;;1829021;77;21656;-70
2023/07/19 03:26:51;;;;;;;8.40;3.50;;;30.70;96.60;;;;;;1796582;78;21122;-71
2023/07/19 03:29:22;;;;;;;9.40;3.62;;;30.70;95.70;;;;;;1810099;78;21128;-69
2023/07/19 03:31:53;;;;;;;11.55;3.92;;;30.70;95.90;;;;;;1816990;78;21186;-69
2023/07/19 03:34:24;;;;;;;20.72;5.05;;;30.80;96.40;;;;;;1816223;78;21166;-69
2023/07/19 03:36:55;;;;;;;12.90;4.50;;;30.80;96.40;;;;;;1815682;78;21534;-72
2023/07/19 03:39:29;;;;;;;8.23;4.03;;;30.90;96.30;;;;;;1803301;78;21793;-69
2023/07/19 03:42:02;;;;;;;8.30;3.92;;;31.00;96.40;;;;;;1825383;78;21538;-70
2023/07/19 03:44:35;;;;;;;23.07;5.90;;;31.10;96.10;;;;;;1793751;78;21554;-70
2023/07/19 03:47:06;;;;;;;11.80;3.70;;;31.20;96.40;;;;;;1822827;77;21087;-68
2023/07/19 03:49:38;;;;;;;11.78;4.47;;;31.30;95.90;;;;;;1830873;78;21118;-69
2023/07/19 03:52:10;;;;;;;12.65;4.47;;;31.40;95.70;;;;;;1814405;77;21584;-69
2023/07/19 03:54:41;;;;;;;8.18;3.80;;;31.60;95.80;;;;;;1833776;77;21228;-69
2023/07/19 03:57:12;;;;;;;13.93;4.20;;;31.60;95.20;;;;;;1798237;80;21534;-70
2023/07/19 03:59:43;;;;;;;11.63;5.00;;;31.80;95.30;;;;;;1809298;78;21126;-70
2023/07/19 04:02:14;;;;;;;48.05;12.15;;;31.80;94.70;;;;;;1822364;77;21707;-69
2023/07/19 04:04:45;;;;;;;7.87;4.00;;;31.90;94.70;;;;;;1821705;77;21170;-72
2023/07/19 04:07:16;;;;;;;18.62;5.55;;;31.90;94.70;;;;;;1825744;77;21119;-68
2023/07/19 04:09:47;;;;;;;20.57;5.25;;;32.00;94.20;;;;;;1798319;79;21542;-70
2023/07/19 04:12:19;;;;;;;5.60;2.30;;;32.00;94.30;;;;;;1825905;77;21197;-71
2023/07/19 04:14:50;;;;;;;13.38;4.22;;;32.00;93.80;;;;;;1800178;78;21108;-71
2023/07/19 04:17:21;;;;;;;29.67;9.75;;;32.00;93.60;;;;;;1799773;79;21124;-70
2023/07/19 04:19:52;;;;;;;25.40;6.90;;;31.90;94.20;;;;;;1808918;78;21202;-72
2023/07/19 04:22:24;;;;;;;13.88;3.83;;;32.00;94.00;;;;;;1787529;79;21104;-71
2023/07/19 04:24:55;;;;;;;12.88;4.75;;;32.20;93.90;;;;;;1790682;80;21163;-71
2023/07/19 04:27:26;;;;;;;7.15;3.20;;;32.20;93.80;;;;;;1797005;79;21145;-70
2023/07/19 04:29:58;;;;;;;5.70;2.50;;;32.30;93.70;;;;;;1813800;77;21125;-69
2023/07/19 04:32:29;;;;;;;8.28;2.70;;;32.30;93.20;;;;;;1815406;77;21522;-69
2023/07/19 04:35:03;;;;;;;11.40;4.87;;;32.20;92.90;;;;;;1817873;77;21526;-69
2023/07/19 04:37:34;;;;;;;6.75;3.95;;;32.30;93.60;;;;;;1803846;77;21125;-71
2023/07/19 04:40:06;;;;;;;10.35;4.70;;;32.20;93.80;;;;;;1819084;78;21190;-70
2023/07/19 04:42:38;;;;;;;24.67;7.00;;;32.20;93.40;;;;;;1801462;78;21112;-70
2023/07/19 04:45:09;;;;;;;8.68;3.92;;;32.30;93.60;;;;;;1813210;79;21512;-70
2023/07/19 04:47:41;;;;;;;30.92;7.33;;;32.30;93.40;;;;;;1797311;79;21152;-72
2023/07/19 04:50:12;;;;;;;11.73;4.28;;;32.30;93.30;;;;;;1813196;77;21086;-70
2023/07/19 04:52:46;;;;;;;6.15;2.90;;;32.20;93.30;;;;;;1803041;77;21486;-70
2023/07/19 04:55:17;;;;;;;9.85;3.27;;;32.10;93.40;;;;;;1830224;77;21102;-69
2023/07/19 04:57:48;;;;;;;6.10;2.60;;;32.10;93.50;;;;;;1836248;77;21118;-70
2023/07/19 05:00:20;;;;;;;7.53;3.55;;;32.10;94.00;;;;;;1825042;77;21082;-69
2023/07/19 05:02:51;;;;;;;6.55;3.25;;;32.10;94.10;;;;;;1812155;77;21228;-70
2023/07/19 05:05:25;;;;;;;9.38;3.33;;;32.20;93.90;;;;;;1817996;77;21134;-70
2023/07/19 05:07:57;;;;;;;6.10;2.98;;;32.20;93.80;;;;;;1813840;77;21121;-72
2023/07/19 05:10:28;;;;;;;6.25;2.92;;;32.20;93.90;;;;;;1815831;77;21126;-70
2023/07/19 05:12:59;;;;;;;8.03;4.28;;;32.30;94.00;;;;;;1828381;77;21193;-70
2023/07/19 05:15:31;;;;;;;20.75;4.90;;;32.30;94.00;;;;;;1823151;77;21205;-69
2023/07/19 05:18:02;;;;;;;10.23;3.65;;;32.30;93.60;;;;;;1829651;77;21166;-71
2023/07/19 05:20:33;;;;;;;8.93;3.50;;;32.30;93.60;;;;;;1801038;78;21166;-71
2023/07/19 05:23:05;;;;;;;6.28;3.02;;;32.40;93.40;;;;;;1802733;78;21618;-74
2023/07/19 05:25:36;;;;;;;7.00;3.20;;;32.40;93.80;;;;;;1830942;77;21224;-71
2023/07/19 05:28:07;;;;;;;10.90;3.30;;;32.40;93.70;;;;;;1831259;77;21142;-70
2023/07/19 05:30:38;;;;;;;12.23;3.27;;;32.40;94.00;;;;;;1830412;77;21608;-70
2023/07/19 05:33:09;;;;;;;10.72;7.67;;;32.50;93.60;;;;;;1829889;77;21447;-71
2023/07/19 05:35:40;;;;;;;9.35;3.30;;;32.50;93.50;;;;;;1796452;79;22159;-72
2023/07/19 05:38:12;;;;;;;10.78;3.50;;;32.60;93.40;;;;;;1800252;79;21166;-73
2023/07/19 05:40:43;;;;;;;8.90;3.15;;;32.60;93.50;;;;;;1807409;78;21518;-70
2023/07/19 05:43:15;;;;;;;9.03;3.30;;;32.60;93.50;;;;;;1802970;79;21182;-70
2023/07/19 05:45:46;;;;;;;8.68;3.12;;;32.60;93.60;;;;;;1804350;79;21633;-70
2023/07/19 05:48:17;;;;;;;9.90;3.15;;;32.60;93.00;;;;;;1803573;78;21092;-71
2023/07/19 05:50:48;;;;;;;6.78;2.87;;;32.60;93.30;;;;;;1787166;79;21569;-72
2023/07/19 05:53:19;;;;;;;6.78;2.90;;;32.60;93.30;;;;;;1820350;77;21091;-72
2023/07/19 05:55:53;;;;;;;5.72;2.60;;;32.50;93.20;;;;;;1831382;76;21072;-71
2023/07/19 05:58:24;;;;;;;10.05;3.30;;;32.50;93.50;;;;;;1829059;77;21197;-71
2023/07/19 06:00:55;;;;;;;5.08;2.58;;;32.60;93.60;;;;;;1833133;77;21099;-69
2023/07/19 06:03:27;;;;;;;7.15;3.02;;;32.60;93.30;;;;;;1834424;77;21232;-71
2023/07/19 06:05:58;;;;;;;8.35;2.83;;;32.70;93.20;;;;;;1829319;77;21603;-72
2023/07/19 06:08:29;;;;;;;15.20;8.50;;;32.70;93.00;;;;;;1831639;77;21097;-72
2023/07/19 06:11:00;;;;;;;6.83;3.05;;;32.80;93.40;;;;;;1824454;77;21075;-70
2023/07/19 06:13:32;;;;;;;11.57;3.72;;;32.70;93.60;;;;;;1793125;78;21182;-71
2023/07/19 06:16:03;;;;;;;6.85;3.30;;;32.80;93.70;;;;;;1789336;79;21213;-69
2023/07/19 06:18:34;;;;;;;7.25;3.00;;;32.80;93.10;;;;;;1795038;79;21153;-72
2023/07/19 06:21:05;;;;;;;29.07;9.43;;;32.70;93.60;;;;;;1819543;77;21154;-70
2023/07/19 06:23:36;;;;;;;8.68;3.10;;;32.60;93.50;;;;;;1816333;77;21103;-70
2023/07/19 06:26:07;;;;;;;7.67;2.77;;;32.60;93.30;;;;;;1818540;77;21178;-69
2023/07/19 06:28:39;;;;;;;9.18;4.03;;;32.60;93.10;;;;;;1796508;78;21144;-72
2023/07/19 06:31:10;;;;;;;8.28;3.10;;;32.50;92.90;;;;;;1796903;78;21100;-71
2023/07/19 06:33:41;;;;;;;5.22;2.67;;;32.40;93.30;;;;;;1818713;79;21176;-71
2023/07/19 06:36:12;;;;;;;6.80;3.75;;;32.30;93.40;;;;;;1794426;78;21196;-72
2023/07/19 06:38:43;;;;;;;10.43;3.77;;;32.20;93.80;;;;;;1792790;78;22090;-71
2023/07/19 06:41:15;;;;;;;104.58;26.23;;;32.20;93.90;;;;;;1820542;77;21162;-71
2023/07/19 06:43:46;;;;;;;62.62;14.35;;;32.20;93.80;;;;;;1825779;77;21165;-72
2023/07/19 06:46:17;;;;;;;29.32;7.12;;;32.10;93.90;;;;;;1822053;77;21134;-71
2023/07/19 06:48:49;;;;;;;19.50;5.30;;;32.10;94.10;;;;;;1797042;79;21088;-72
2023/07/19 06:51:20;;;;;;;14.18;4.08;;;32.10;93.90;;;;;;1797465;79;21135;-72
2023/07/19 06:53:52;;;;;;;26.52;5.58;;;32.10;93.80;;;;;;1772405;79;21484;-72
2023/07/19 06:56:28;;;;;;;27.07;5.15;;;32.10;94.00;;;;;;1820788;77;21078;-71
2023/07/19 06:58:59;;;;;;;25.60;7.53;;;32.10;93.90;;;;;;1819698;77;21119;-73
2023/07/19 07:01:30;;;;;;;25.35;6.03;;;32.10;94.10;;;;;;1835111;77;21159;-72
2023/07/19 07:04:02;;;;;;;32.23;6.90;;;32.10;94.40;;;;;;1822461;77;21192;-73
2023/07/19 07:06:33;;;;;;;21.17;6.58;;;32.10;94.90;;;;;;1825274;77;21158;-71
2023/07/19 07:09:04;;;;;;;18.15;7.22;;;32.10;94.70;;;;;;1827692;77;21065;-71
2023/07/19 07:11:35;;;;;;;45.08;12.45;;;32.00;94.70;;;;;;1826820;77;21200;-73
2023/07/19 07:14:06;;;;;;;75.50;13.62;;;32.00;94.90;;;;;;1822259;77;21127;-71
2023/07/19 07:16:37;;;;;;;41.68;10.20;;;31.90;94.90;;;;;;1826761;77;21686;-71
2023/07/19 07:19:08;;;;;;;51.37;13.40;;;31.90;95.00;;;;;;1824966;77;21123;-72
2023/07/19 07:21:40;;;;;;;29.55;9.13;;;31.90;95.10;;;;;;1803058;77;21245;-71
2023/07/19 07:24:11;;;;;;;21.93;6.72;;;31.80;95.20;;;;;;1800658;78;21790;-71
2023/07/19 07:26:42;;;;;;;48.98;10.98;;;31.80;95.20;;;;;;1799576;78;21158;-71
2023/07/19 07:29:13;;;;;;;36.30;7.40;;;31.80;95.30;;;;;;1796227;78;21158;-73
2023/07/19 07:31:44;;;;;;;29.67;9.70;;;31.80;95.20;;;;;;1787335;78;21554;-71
2023/07/19 07:34:16;;;;;;;24.52;8.33;;;31.80;94.70;;;;;;1824301;77;21457;-72
2023/07/19 07:36:47;;;;;;;36.75;16.60;;;31.90;94.80;;;;;;1817870;77;21798;-72
2023/07/19 07:39:19;;;;;;;37.73;13.28;;;31.80;94.70;;;;;;1819910;77;21212;-71
2023/07/19 07:41:50;;;;;;;55.60;15.58;;;31.80;94.80;;;;;;1789240;78;21135;-71
2023/07/19 07:44:21;;;;;;;16.45;5.28;;;31.80;94.90;;;;;;1825834;77;21091;-73
2023/07/19 07:46:52;;;;;;;9.90;4.17;;;31.80;95.10;;;;;;1793228;78;21589;-71
2023/07/19 07:49:29;;;;;;;9.70;3.70;;;31.80;95.30;;;;;;1798689;78;21119;-72
2023/07/19 07:52:01;;;;;;;11.03;3.72;;;31.70;95.10;;;;;;1825695;77;21146;-75
2023/07/19 07:54:33;;;;;;;9.75;3.83;;;31.70;95.20;;;;;;1826329;77;21094;-72
2023/07/19 07:57:05;;;;;;;17.50;5.30;;;31.60;95.30;;;;;;1837707;76;21576;-74
2023/07/19 07:59:47;;;;;;;19.05;6.10;;;31.60;95.40;;;;;;1828177;77;21184;-74
2023/07/19 08:02:21;;;;;;;10.05;3.90;;;31.60;95.50;;;;;;1816871;77;21141;-72
2023/07/19 08:04:52;;;;;;;21.07;5.95;;;31.60;95.50;;;;;;1831164;77;21221;-74
2023/07/19 08:07:25;;;;;;;23.77;5.50;;;31.70;95.40;;;;;;1830440;77;21130;-72
2023/07/19 08:09:56;;;;;;;24.27;8.03;;;31.70;95.10;;;;;;1837485;77;21199;-72
2023/07/19 08:12:32;;;;;;;13.78;4.67;;;31.70;95.00;;;;;;1817596;77;21228;-71
2023/07/19 08:15:07;;;;;;;10.15;3.87;;;31.80;94.80;;;;;;1809818;78;21131;-71
2023/07/19 08:17:39;;;;;;;18.23;5.72;;;31.90;94.70;;;;;;1831314;77;21099;-71
2023/07/19 08:20:13;;;;;;;36.13;9.93;;;31.90;94.60;;;;;;1817000;77;21130;-69
2023/07/19 08:22:45;;;;;;;16.10;4.75;;;32.00;94.40;;;;;;1806462;79;21115;-71
2023/07/19 08:25:19;;;;;;;13.55;4.15;;;32.00;94.20;;;;;;1801416;78;21259;-69
2023/07/19 08:27:51;;;;;;;13.20;4.22;;;32.00;94.00;;;;;;1794351;78;21594;-70
2023/07/19 08:30:23;;;;;;;14.00;3.45;;;32.00;94.20;;;;;;1804357;78;21088;-71
2023/07/19 08:32:56;;;;;;;14.23;3.40;;;32.10;94.10;;;;;;1797080;79;21068;-70
2023/07/19 08:35:27;;;;;;;13.45;4.75;;;32.10;94.20;;;;;;1829341;77;21131;-71
2023/07/19 08:37:58;;;;;;;16.10;4.10;;;32.10;94.10;;;;;;1802735;79;21506;-70
2023/07/19 08:40:32;;;;;;;49.60;8.95;;;32.10;94.20;;;;;;1823177;77;21245;-70
2023/07/19 08:43:05;;;;;;;31.42;8.48;;;32.00;94.60;;;;;;1820788;79;21122;-71
2023/07/19 08:45:37;;;;;;;23.38;7.45;;;32.00;94.20;;;;;;1822338;77;21187;-69
2023/07/19 08:48:09;;;;;;;13.62;4.10;;;32.00;94.20;;;;;;1821833;77;21134;-70
2023/07/19 08:50:46;;;;;;;14.75;4.83;;;32.00;94.20;;;;;;1820098;77;21117;-72
2023/07/19 08:53:17;;;;;;;7.67;2.55;;;32.00;94.40;;;;;;1826184;77;21201;-72
2023/07/19 08:55:48;;;;;;;14.85;3.75;;;32.00;94.20;;;;;;1821371;77;21498;-71
2023/07/19 08:58:20;;;;;;;19.12;4.78;;;32.10;94.30;;;;;;1822049;77;21084;-70
2023/07/19 09:00:51;;;;;;;24.00;5.08;;;32.10;94.20;;;;;;1824622;77;21146;-71
2023/07/19 09:03:22;;;;;;;25.62;5.65;;;32.10;94.40;;;;;;1835842;77;21093;-72
2023/07/19 09:05:55;;;;;;;25.32;6.47;;;32.10;94.50;;;;;;1833477;77;21153;-71
2023/07/19 09:08:39;;;;;;;18.87;5.70;;;32.10;94.40;;;;;;1836745;77;21131;-71
2023/07/19 09:11:10;;;;;;;13.50;5.25;;;32.10;94.30;;;;;;1818325;77;21612;-71
2023/07/19 09:13:42;;;;;;;36.98;7.22;;;32.10;94.50;;;;;;1822532;77;21159;-72
2023/07/19 09:16:13;;;;;;;33.90;8.10;;;32.10;94.30;;;;;;1806515;78;21628;-71
2023/07/19 09:18:46;;;;;;;11.12;5.47;;;32.10;94.70;;;;;;1797435;78;21540;-72
2023/07/19 09:21:17;;;;;;;11.83;4.17;;;32.10;94.70;;;;;;1798692;78;21225;-72
2023/07/19 09:23:50;;;;;;;6.72;3.58;;;32.10;94.20;;;;;;1799809;78;21095;-72
2023/07/19 09:26:21;;;;;;;9.38;3.75;;;32.20;94.30;;;;;;1793594;78;21156;-71
2023/07/19 09:28:53;;;;;;;16.40;3.45;;;32.20;94.20;;;;;;1793297;78;21080;-73
2023/07/19 09:31:25;;;;;;;11.22;3.55;;;32.20;94.10;;;;;;1801210;78;21203;-72
2023/07/19 09:33:57;;;;;;;7.85;3.45;;;32.20;93.90;;;;;;1797161;78;21194;-72
2023/07/19 09:36:30;;;;;;;7.20;3.17;;;32.20;94.00;;;;;;1799468;79;21531;-72
2023/07/19 09:39:01;;;;;;;7.03;3.08;;;32.20;93.90;;;;;;1799242;79;21187;-71
2023/07/19 09:41:32;;;;;;;9.03;3.22;;;32.20;93.80;;;;;;1793153;78;21516;-74
2023/07/19 09:44:09;;;;;;;8.63;3.70;;;32.20;93.90;;;;;;1794752;79;21171;-72
2023/07/19 09:46:37;;;;;;;11.53;3.85;;;32.20;94.00;;;;;;1797670;78;21185;-73
2023/07/19 09:49:12;;;;;;;9.83;3.52;;;32.20;93.70;;;;;;1805105;78;21248;-70
2023/07/19 09:51:43;;;;;;;9.25;3.08;;;32.20;94.10;;;;;;1799957;78;21484;-71
2023/07/19 09:54:16;;;;;;;16.30;5.97;;;32.10;93.70;;;;;;1799263;79;21127;-73
2023/07/19 09:56:47;;;;;;;18.02;5.92;;;32.10;93.90;;;;;;1794083;79;21568;-72
2023/07/19 09:59:20;;;;;;;7.53;3.30;;;32.10;94.10;;;;;;1766166;80;21608;-71
2023/07/19 10:01:53;;;;;;;8.28;3.15;;;32.10;94.10;;;;;;1752092;80;21253;-72
2023/07/19 10:04:25;;;;;;;18.40;5.33;;;32.10;94.10;;;;;;1794621;78;21133;-71
2023/07/19 10:07:10;;;;;;;10.90;4.58;;;32.10;94.30;;;;;;1799070;78;21296;-73
2023/07/19 10:09:45;;;;;;;18.47;7.07;;;32.10;94.40;;;;;;1802768;78;21107;-72
2023/07/19 10:12:23;;;;;;;18.05;6.10;;;32.10;94.40;;;;;;1760072;80;22073;-71
2023/07/19 10:15:05;;;;;;;6.62;3.05;;;32.00;94.40;;;;;;1803238;78;21186;-75
2023/07/19 10:17:58;;;;;;;10.58;4.42;;;32.10;94.20;;;;;;1825633;77;21175;-74
2023/07/19 10:20:35;;;;;;;20.90;5.60;;;32.00;94.00;;;;;;1796484;78;21107;-73
2023/07/19 10:23:08;;;;;;;14.23;3.72;;;32.00;94.00;;;;;;1825795;77;21584;-73
2023/07/19 10:25:48;;;;;;;10.05;3.80;;;32.00;94.00;;;;;;1829138;77;21585;-71
2023/07/19 10:28:32;;;;;;;12.15;3.25;;;32.00;94.00;;;;;;1802856;78;21116;-72
2023/07/19 10:31:06;;;;;;;5.62;3.00;;;32.00;93.90;;;;;;1798918;78;21223;-71
2023/07/19 10:33:38;;;;;;;5.62;3.05;;;32.00;94.00;;;;;;1799270;78;21101;-72
2023/07/19 10:36:12;;;;;;;11.33;3.83;;;31.90;93.90;;;;;;1806161;78;21216;-74
2023/07/19 10:38:43;;;;;;;10.53;4.03;;;31.80;94.00;;;;;;1805259;78;21170;-72
2023/07/19 10:41:15;;;;;;;16.05;4.80;;;31.80;94.20;;;;;;1804450;78;21102;-70
2023/07/19 10:43:46;;;;;;;9.53;3.95;;;31.80;94.30;;;;;;1802135;78;21170;-74
2023/07/19 10:46:19;;;;;;;9.55;4.15;;;31.70;94.40;;;;;;1805654;78;21533;-71
2023/07/19 10:48:51;;;;;;;7.67;4.40;;;31.70;94.50;;;;;;1808077;78;21564;-70
2023/07/19 10:51:24;;;;;;;9.25;4.12;;;31.70;94.40;;;;;;1806431;78;21184;-71
2023/07/19 10:53:58;;;;;;;14.35;4.60;;;31.60;94.70;;;;;;1801879;78;21129;-72
2023/07/19 10:56:33;;;;;;;7.90;3.80;;;31.60;94.90;;;;;;1804197;78;21082;-71
2023/07/19 10:59:04;;;;;;;13.20;4.17;;;31.50;95.00;;;;;;1828635;77;21200;-73
2023/07/19 11:01:38;;;;;;;9.73;3.90;;;31.50;94.90;;;;;;1831153;77;21150;-72
2023/07/19 11:04:09;;;;;;;6.50;3.30;;;31.50;95.00;;;;;;1827331;77;21149;-72
2023/07/19 11:06:42;;;;;;;8.95;3.65;;;31.50;95.00;;;;;;1829051;77;21130;-71
2023/07/19 11:09:13;;;;;;;9.23;3.98;;;31.50;95.10;;;;;;1804664;78;21131;-72
2023/07/19 11:11:44;;;;;;;12.30;4.90;;;31.40;95.10;;;;;;1831592;78;21098;-73
2023/07/19 11:14:36;;;;;;;15.38;4.83;;;31.40;95.20;;;;;;1800074;79;21101;-70
2023/07/19 11:17:07;;;;;;;11.53;4.72;;;31.40;95.30;;;;;;1828797;77;21628;-72
2023/07/19 11:19:40;;;;;;;26.85;16.05;;;31.40;95.20;;;;;;1798070;78;21241;-70
2023/07/19 11:22:11;;;;;;;11.78;4.87;;;31.40;95.20;;;;;;1830677;77;21182;-70
2023/07/19 11:24:43;;;;;;;11.53;5.00;;;31.40;95.30;;;;;;1823324;77;21095;-70
2023/07/19 11:27:14;;;;;;;10.03;3.83;;;31.30;95.40;;;;;;1826824;77;21098;-70
2023/07/19 11:29:53;;;;;;;9.10;4.33;;;31.30;95.60;;;;;;1822827;77;21115;-70
2023/07/19 11:32:24;;;;;;;9.85;4.45;;;31.20;95.50;;;;;;1821279;77;21099;-70
2023/07/19 11:34:58;;;;;;;8.45;4.65;;;31.20;95.50;;;;;;1823481;77;21071;-70
2023/07/19 11:37:31;;;;;;;12.70;4.62;;;31.20;95.50;;;;;;1822129;79;21119;-72
2023/07/19 11:40:05;;;;;;;15.72;4.67;;;31.20;95.40;;;;;;1823310;77;21174;-70
2023/07/19 11:42:56;;;;;;;14.98;5.35;;;31.20;95.40;;;;;;1820490;77;21095;-71
2023/07/19 11:45:31;;;;;;;26.57;13.98;;;31.20;95.60;;;;;;1828415;77;21279;-71
2023/07/19 11:48:03;;;;;;;22.32;13.75;;;31.20;95.70;;;;;;1823009;77;21241;-70
2023/07/19 11:50:38;;;;;;;20.32;12.88;;;31.20;95.60;;;;;;1829275;77;21083;-70
2023/07/19 11:53:09;;;;;;;19.10;10.90;;;31.10;95.70;;;;;;1821667;77;21096;-71
2023/07/19 11:55:41;;;;;;;11.33;6.08;;;31.10;95.70;;;;;;1822846;77;21134;-71
2023/07/19 11:58:13;;;;;;;13.25;6.50;;;31.10;95.60;;;;;;1825588;77;21617;-71
2023/07/19 12:00:44;;;;;;;12.93;5.42;;;31.10;95.70;;;;;;1834924;77;21092;-70
2023/07/19 12:03:17;;;;;;;13.83;5.78;;;31.10;95.60;;;;;;1830488;77;21598;-70
2023/07/19 12:05:48;;;;;;;12.10;5.60;;;31.10;95.70;;;;;;1829360;77;21150;-71
2023/07/19 12:08:19;;;;;;;11.03;5.92;;;31.00;95.70;;;;;;1837359;77;21561;-72
2023/07/19 12:10:50;;;;;;;13.90;6.62;;;31.00;95.90;;;;;;1836436;77;21166;-71
2023/07/19 12:13:22;;;;;;;13.88;6.25;;;31.10;95.90;;;;;;1834550;77;21646;-71
2023/07/19 12:15:53;;;;;;;12.80;5.80;;;31.10;96.00;;;;;;1808791;77;21131;-70
2023/07/19 12:18:24;;;;;;;13.83;5.78;;;31.00;96.00;;;;;;1813700;77;21166;-71
2023/07/19 12:20:56;;;;;;;14.05;5.90;;;31.00;96.00;;;;;;1811625;78;21087;-71
2023/07/19 12:23:28;;;;;;;11.08;4.95;;;31.00;96.00;;;;;;1807151;78;21178;-71
2023/07/19 12:26:00;;;;;;;11.88;5.97;;;30.90;96.00;;;;;;1810690;78;21096;-71
2023/07/19 12:28:31;;;;;;;11.03;6.10;;;31.00;96.10;;;;;;1787738;78;21564;-70
2023/07/19 12:31:02;;;;;;;14.65;8.25;;;31.00;96.30;;;;;;1779864;79;21069;-77
2023/07/19 12:33:34;;;;;;;15.75;10.05;;;31.00;96.80;;;;;;1800557;78;21082;-79
2023/07/19 12:36:05;;;;;;;24.98;11.03;;;31.00;97.40;;;;;;1751286;80;21126;-82
2023/07/19 12:38:36;;;;;;;17.45;9.23;;;31.00;97.70;;;;;;1788011;79;21094;-83
2023/07/19 12:41:10;;;;;;;17.32;10.70;;;31.00;97.50;;;;;;1785196;79;21626;-80
2023/07/19 12:43:41;;;;;;;23.15;12.23;;;30.90;97.90;;;;;;1770625;80;21110;-79
2023/07/19 12:46:13;;;;;;;16.67;9.48;;;30.90;98.00;;;;;;1752707;80;21110;-80
2023/07/19 12:48:49;;;;;;;23.40;11.88;;;30.90;98.20;;;;;;1779140;79;21107;-78
2023/07/19 12:51:19;;;;;;;18.37;11.10;;;30.90;98.10;;;;;;1807666;79;21127;-77
2023/07/19 12:53:57;;;;;;;22.42;11.30;;;30.90;98.50;;;;;;1809490;78;21175;-78
2023/07/19 12:56:35;;;;;;;25.90;11.38;;;30.90;98.70;;;;;;1793509;78;21065;-79
2023/07/19 12:59:26;;;;;;;20.27;10.15;;;30.90;98.80;;;;;;1807021;79;21652;-83
2023/07/19 13:02:02;;;;;;;17.92;9.35;;;30.80;98.60;;;;;;1806385;78;21144;-78
2023/07/19 13:04:36;;;;;;;20.35;10.18;;;30.80;98.60;;;;;;1811074;78;21540;-78